sensor_id;sensor_type;location;lat;lon;timestamp;P1;durP1;ratioP1;P2;durP2;ratioP2
49764;SDS011;35657;51.204;-4.130;2023-03-16T00:01:17;2.78;;;0.88;;
49764;SDS011;35657;51.204;-4.130;2023-03-16T00:03:43;3.55;;;0.95;;
49764;SDS011;35657;51.204;-4.130;2023-03-16T00:06:09;2.83;;;0.75;;
49764;SDS011;35657;51.204;-4.130;2023-03-16T00:08:35;3.78;;;1.15;;
49764;SDS011;35657;51.204;-4.130;2023-03-16T00:11:01;5.00;;;1.10;;
49764;SDS011;35657;51.204;-4.130;2023-03-16T00:13:27;2.53;;;1.10;;
49764;SDS011;35657;51.204;-4.130;2023-03-16T00:18:21;3.70;;;1.13;;
49764;SDS011;35657;51.204;-4.130;2023-03-16T00:20:51;3.40;;;0.90;;
49764;SDS011;35657;51.204;-4.130;2023-03-16T00:23:26;1.67;;;0.77;;
49764;SDS011;35657;51.204;-4.130;2023-03-16T00:25:55;4.13;;;1.00;;
49764;SDS011;35657;51.204;-4.130;2023-03-16T00:28:27;4.13;;;0.82;;
49764;SDS011;35657;51.204;-4.130;2023-03-16T00:30:59;2.33;;;0.75;;
49764;SDS011;35657;51.204;-4.130;2023-03-16T00:33:28;8.45;;;0.73;;
49764;SDS011;35657;51.204;-4.130;2023-03-16T00:35:54;1.70;;;0.93;;
49764;SDS011;35657;51.204;-4.130;2023-03-16T00:38:28;1.88;;;0.63;;
49764;SDS011;35657;51.204;-4.130;2023-03-16T00:40:59;2.95;;;0.80;;
49764;SDS011;35657;51.204;-4.130;2023-03-16T00:43:28;1.33;;;0.60;;
49764;SDS011;35657;51.204;-4.130;2023-03-16T00:45:58;1.58;;;0.88;;
49764;SDS011;35657;51.204;-4.130;2023-03-16T00:48:30;0.65;;;0.47;;
49764;SDS011;35657;51.204;-4.130;2023-03-16T00:50:59;3.40;;;0.88;;
49764;SDS011;35657;51.204;-4.130;2023-03-16T00:53:25;1.02;;;0.43;;
49764;SDS011;35657;51.204;-4.130;2023-03-16T00:55:51;2.53;;;0.65;;
49764;SDS011;35657;51.204;-4.130;2023-03-16T00:58:17;4.03;;;1.08;;
49764;SDS011;35657;51.204;-4.130;2023-03-16T01:00:44;2.10;;;0.80;;
49764;SDS011;35657;51.204;-4.130;2023-03-16T01:03:10;5.03;;;2.17;;
49764;SDS011;35657;51.204;-4.130;2023-03-16T01:05:39;4.30;;;0.90;;
49764;SDS011;35657;51.204;-4.130;2023-03-16T01:08:07;4.78;;;0.95;;
49764;SDS011;35657;51.204;-4.130;2023-03-16T01:10:35;2.53;;;1.00;;
49764;SDS011;35657;51.204;-4.130;2023-03-16T01:13:02;4.03;;;0.68;;
49764;SDS011;35657;51.204;-4.130;2023-03-16T01:15:30;1.50;;;0.95;;
49764;SDS011;35657;51.204;-4.130;2023-03-16T01:17:57;2.17;;;0.80;;
49764;SDS011;35657;51.204;-4.130;2023-03-16T01:20:22;2.83;;;1.40;;
49764;SDS011;35657;51.204;-4.130;2023-03-16T01:22:48;9.73;;;3.67;;
49764;SDS011;35657;51.204;-4.130;2023-03-16T01:25:14;5.90;;;3.05;;
49764;SDS011;35657;51.204;-4.130;2023-03-16T01:27:39;8.25;;;3.88;;
49764;SDS011;35657;51.204;-4.130;2023-03-16T01:30:06;9.70;;;4.13;;
49764;SDS011;35657;51.204;-4.130;2023-03-16T01:32:32;10.10;;;3.58;;
49764;SDS011;35657;51.204;-4.130;2023-03-16T01:34:58;10.48;;;3.03;;
49764;SDS011;35657;51.204;-4.130;2023-03-16T01:37:23;5.00;;;1.88;;
49764;SDS011;35657;51.204;-4.130;2023-03-16T01:39:49;3.53;;;1.85;;
49764;SDS011;35657;51.204;-4.130;2023-03-16T01:42:15;14.07;;;2.67;;
49764;SDS011;35657;51.204;-4.130;2023-03-16T01:44:57;3.65;;;1.83;;
49764;SDS011;35657;51.204;-4.130;2023-03-16T01:47:30;12.73;;;1.83;;
49764;SDS011;35657;51.204;-4.130;2023-03-16T01:50:02;6.78;;;2.10;;
49764;SDS011;35657;51.204;-4.130;2023-03-16T01:52:33;6.38;;;1.63;;
49764;SDS011;35657;51.204;-4.130;2023-03-16T01:55:07;3.67;;;1.42;;
49764;SDS011;35657;51.204;-4.130;2023-03-16T01:57:41;7.20;;;1.65;;
49764;SDS011;35657;51.204;-4.130;2023-03-16T02:00:11;5.57;;;1.95;;
49764;SDS011;35657;51.204;-4.130;2023-03-16T02:02:51;4.65;;;1.17;;
49764;SDS011;35657;51.204;-4.130;2023-03-16T02:05:22;5.40;;;1.20;;
49764;SDS011;35657;51.204;-4.130;2023-03-16T02:08:01;13.45;;;2.05;;
49764;SDS011;35657;51.204;-4.130;2023-03-16T02:10:29;6.68;;;1.38;;
49764;SDS011;35657;51.204;-4.130;2023-03-16T02:12:56;4.82;;;1.33;;
49764;SDS011;35657;51.204;-4.130;2023-03-16T02:15:22;7.82;;;1.75;;
49764;SDS011;35657;51.204;-4.130;2023-03-16T02:17:48;14.88;;;1.65;;
49764;SDS011;35657;51.204;-4.130;2023-03-16T02:22:59;4.18;;;1.50;;
49764;SDS011;35657;51.204;-4.130;2023-03-16T02:25:39;6.00;;;1.10;;
49764;SDS011;35657;51.204;-4.130;2023-03-16T02:28:24;7.47;;;1.30;;
49764;SDS011;35657;51.204;-4.130;2023-03-16T02:31:12;2.20;;;0.77;;
49764;SDS011;35657;51.204;-4.130;2023-03-16T02:33:40;11.43;;;1.80;;
49764;SDS011;35657;51.204;-4.130;2023-03-16T02:36:08;5.57;;;1.40;;
49764;SDS011;35657;51.204;-4.130;2023-03-16T02:38:34;5.30;;;1.50;;
49764;SDS011;35657;51.204;-4.130;2023-03-16T02:41:04;3.58;;;1.20;;
49764;SDS011;35657;51.204;-4.130;2023-03-16T02:43:46;3.17;;;1.30;;
49764;SDS011;35657;51.204;-4.130;2023-03-16T02:46:18;3.30;;;0.75;;
49764;SDS011;35657;51.204;-4.130;2023-03-16T02:48:48;2.58;;;0.90;;
49764;SDS011;35657;51.204;-4.130;2023-03-16T02:51:35;4.38;;;1.23;;
49764;SDS011;35657;51.204;-4.130;2023-03-16T02:54:01;3.53;;;1.00;;
49764;SDS011;35657;51.204;-4.130;2023-03-16T02:56:27;3.97;;;0.88;;
49764;SDS011;35657;51.204;-4.130;2023-03-16T02:58:53;1.75;;;0.88;;
49764;SDS011;35657;51.204;-4.130;2023-03-16T03:01:21;3.25;;;1.10;;
49764;SDS011;35657;51.204;-4.130;2023-03-16T03:03:47;2.28;;;0.60;;
49764;SDS011;35657;51.204;-4.130;2023-03-16T03:06:13;3.42;;;0.85;;
49764;SDS011;35657;51.204;-4.130;2023-03-16T03:08:39;7.35;;;1.25;;
49764;SDS011;35657;51.204;-4.130;2023-03-16T03:11:06;2.58;;;0.85;;
49764;SDS011;35657;51.204;-4.130;2023-03-16T03:13:33;4.13;;;1.42;;
49764;SDS011;35657;51.204;-4.130;2023-03-16T03:15:59;6.40;;;0.80;;
49764;SDS011;35657;51.204;-4.130;2023-03-16T03:18:25;1.90;;;0.80;;
49764;SDS011;35657;51.204;-4.130;2023-03-16T03:20:52;2.38;;;1.00;;
49764;SDS011;35657;51.204;-4.130;2023-03-16T03:23:17;4.82;;;0.90;;
49764;SDS011;35657;51.204;-4.130;2023-03-16T03:25:43;3.53;;;1.13;;
49764;SDS011;35657;51.204;-4.130;2023-03-16T03:28:09;4.35;;;0.80;;
49764;SDS011;35657;51.204;-4.130;2023-03-16T03:30:35;3.83;;;0.77;;
49764;SDS011;35657;51.204;-4.130;2023-03-16T03:33:01;2.10;;;0.98;;
49764;SDS011;35657;51.204;-4.130;2023-03-16T03:35:27;3.03;;;0.65;;
49764;SDS011;35657;51.204;-4.130;2023-03-16T03:37:53;2.55;;;0.77;;
49764;SDS011;35657;51.204;-4.130;2023-03-16T03:40:19;3.45;;;0.80;;
49764;SDS011;35657;51.204;-4.130;2023-03-16T03:42:45;1.17;;;0.60;;
49764;SDS011;35657;51.204;-4.130;2023-03-16T03:45:12;2.38;;;0.70;;
49764;SDS011;35657;51.204;-4.130;2023-03-16T03:47:38;1.75;;;0.70;;
49764;SDS011;35657;51.204;-4.130;2023-03-16T03:50:05;6.63;;;0.70;;
49764;SDS011;35657;51.204;-4.130;2023-03-16T03:52:34;1.77;;;0.63;;
49764;SDS011;35657;51.204;-4.130;2023-03-16T03:55:00;4.47;;;0.95;;
49764;SDS011;35657;51.204;-4.130;2023-03-16T03:57:25;1.77;;;0.60;;
49764;SDS011;35657;51.204;-4.130;2023-03-16T03:59:51;1.55;;;0.57;;
49764;SDS011;35657;51.204;-4.130;2023-03-16T04:02:16;4.70;;;1.10;;
49764;SDS011;35657;51.204;-4.130;2023-03-16T04:04:42;2.65;;;1.77;;
49764;SDS011;35657;51.204;-4.130;2023-03-16T04:07:08;2.55;;;0.93;;
49764;SDS011;35657;51.204;-4.130;2023-03-16T04:09:34;2.88;;;0.90;;
49764;SDS011;35657;51.204;-4.130;2023-03-16T04:12:01;7.05;;;1.40;;
49764;SDS011;35657;51.204;-4.130;2023-03-16T04:14:28;8.85;;;1.13;;
49764;SDS011;35657;51.204;-4.130;2023-03-16T04:16:54;3.53;;;0.75;;
49764;SDS011;35657;51.204;-4.130;2023-03-16T04:19:20;6.60;;;1.30;;
49764;SDS011;35657;51.204;-4.130;2023-03-16T04:21:47;6.57;;;1.33;;
49764;SDS011;35657;51.204;-4.130;2023-03-16T04:24:14;6.47;;;0.70;;
49764;SDS011;35657;51.204;-4.130;2023-03-16T04:26:40;8.38;;;1.33;;
49764;SDS011;35657;51.204;-4.130;2023-03-16T04:29:09;3.33;;;1.20;;
49764;SDS011;35657;51.204;-4.130;2023-03-16T04:31:35;8.60;;;1.27;;
49764;SDS011;35657;51.204;-4.130;2023-03-16T04:34:01;9.07;;;1.88;;
49764;SDS011;35657;51.204;-4.130;2023-03-16T04:36:26;7.15;;;1.05;;
49764;SDS011;35657;51.204;-4.130;2023-03-16T04:38:52;13.57;;;2.20;;
49764;SDS011;35657;51.204;-4.130;2023-03-16T04:41:18;8.70;;;1.63;;
49764;SDS011;35657;51.204;-4.130;2023-03-16T04:43:44;5.07;;;1.15;;
49764;SDS011;35657;51.204;-4.130;2023-03-16T04:46:10;12.05;;;2.30;;
49764;SDS011;35657;51.204;-4.130;2023-03-16T04:48:36;11.10;;;2.00;;
49764;SDS011;35657;51.204;-4.130;2023-03-16T04:51:02;6.70;;;1.95;;
49764;SDS011;35657;51.204;-4.130;2023-03-16T04:53:28;5.93;;;1.88;;
49764;SDS011;35657;51.204;-4.130;2023-03-16T04:55:56;8.38;;;1.83;;
49764;SDS011;35657;51.204;-4.130;2023-03-16T04:58:22;5.25;;;1.52;;
49764;SDS011;35657;51.204;-4.130;2023-03-16T05:00:50;6.10;;;2.00;;
49764;SDS011;35657;51.204;-4.130;2023-03-16T05:03:16;4.57;;;1.48;;
49764;SDS011;35657;51.204;-4.130;2023-03-16T05:05:42;6.75;;;1.98;;
49764;SDS011;35657;51.204;-4.130;2023-03-16T05:08:10;8.25;;;2.03;;
49764;SDS011;35657;51.204;-4.130;2023-03-16T05:10:36;9.25;;;2.00;;
49764;SDS011;35657;51.204;-4.130;2023-03-16T05:13:02;13.15;;;2.75;;
49764;SDS011;35657;51.204;-4.130;2023-03-16T05:15:29;5.93;;;1.13;;
49764;SDS011;35657;51.204;-4.130;2023-03-16T05:17:55;6.78;;;1.00;;
49764;SDS011;35657;51.204;-4.130;2023-03-16T05:20:21;5.97;;;1.02;;
49764;SDS011;35657;51.204;-4.130;2023-03-16T05:22:47;8.30;;;1.90;;
49764;SDS011;35657;51.204;-4.130;2023-03-16T05:25:13;8.02;;;0.90;;
49764;SDS011;35657;51.204;-4.130;2023-03-16T05:27:40;8.45;;;2.60;;
49764;SDS011;35657;51.204;-4.130;2023-03-16T05:30:08;6.72;;;1.20;;
49764;SDS011;35657;51.204;-4.130;2023-03-16T05:32:35;11.77;;;1.88;;
49764;SDS011;35657;51.204;-4.130;2023-03-16T05:35:01;12.23;;;1.95;;
49764;SDS011;35657;51.204;-4.130;2023-03-16T05:37:27;7.63;;;1.55;;
49764;SDS011;35657;51.204;-4.130;2023-03-16T05:39:53;5.82;;;2.17;;
49764;SDS011;35657;51.204;-4.130;2023-03-16T05:42:19;6.97;;;1.55;;
49764;SDS011;35657;51.204;-4.130;2023-03-16T05:44:44;6.32;;;1.20;;
49764;SDS011;35657;51.204;-4.130;2023-03-16T05:47:10;6.10;;;1.73;;
49764;SDS011;35657;51.204;-4.130;2023-03-16T05:49:36;3.88;;;1.00;;
49764;SDS011;35657;51.204;-4.130;2023-03-16T05:52:02;5.97;;;1.00;;
49764;SDS011;35657;51.204;-4.130;2023-03-16T05:54:28;6.30;;;1.50;;
49764;SDS011;35657;51.204;-4.130;2023-03-16T05:56:54;8.48;;;2.10;;
49764;SDS011;35657;51.204;-4.130;2023-03-16T05:59:19;8.27;;;1.40;;
49764;SDS011;35657;51.204;-4.130;2023-03-16T06:01:45;9.75;;;2.63;;
49764;SDS011;35657;51.204;-4.130;2023-03-16T06:04:11;6.85;;;1.40;;
49764;SDS011;35657;51.204;-4.130;2023-03-16T06:06:36;5.20;;;1.30;;
49764;SDS011;35657;51.204;-4.130;2023-03-16T06:09:02;10.98;;;3.25;;
49764;SDS011;35657;51.204;-4.130;2023-03-16T06:11:28;2.65;;;0.52;;
49764;SDS011;35657;51.204;-4.130;2023-03-16T06:13:56;8.98;;;1.67;;
49764;SDS011;35657;51.204;-4.130;2023-03-16T06:16:23;5.95;;;1.48;;
49764;SDS011;35657;51.204;-4.130;2023-03-16T06:18:49;16.20;;;2.95;;
49764;SDS011;35657;51.204;-4.130;2023-03-16T06:21:15;7.50;;;1.90;;
49764;SDS011;35657;51.204;-4.130;2023-03-16T06:23:41;2.22;;;0.90;;
49764;SDS011;35657;51.204;-4.130;2023-03-16T06:26:07;8.95;;;3.85;;
49764;SDS011;35657;51.204;-4.130;2023-03-16T06:28:32;6.43;;;2.42;;
49764;SDS011;35657;51.204;-4.130;2023-03-16T06:30:58;19.92;;;7.78;;
49764;SDS011;35657;51.204;-4.130;2023-03-16T06:33:24;16.67;;;10.30;;
49764;SDS011;35657;51.204;-4.130;2023-03-16T06:35:50;17.02;;;5.85;;
49764;SDS011;35657;51.204;-4.130;2023-03-16T06:38:16;6.80;;;2.88;;
49764;SDS011;35657;51.204;-4.130;2023-03-16T06:40:42;7.00;;;2.13;;
49764;SDS011;35657;51.204;-4.130;2023-03-16T06:43:08;12.93;;;3.00;;
49764;SDS011;35657;51.204;-4.130;2023-03-16T06:45:34;9.55;;;2.92;;
49764;SDS011;35657;51.204;-4.130;2023-03-16T06:48:00;6.65;;;3.00;;
49764;SDS011;35657;51.204;-4.130;2023-03-16T06:50:26;13.68;;;4.13;;
49764;SDS011;35657;51.204;-4.130;2023-03-16T06:52:53;15.57;;;2.08;;
49764;SDS011;35657;51.204;-4.130;2023-03-16T06:55:18;5.38;;;2.15;;
49764;SDS011;35657;51.204;-4.130;2023-03-16T06:57:45;6.47;;;2.00;;
49764;SDS011;35657;51.204;-4.130;2023-03-16T07:00:12;7.50;;;1.88;;
49764;SDS011;35657;51.204;-4.130;2023-03-16T07:02:40;3.92;;;2.03;;
49764;SDS011;35657;51.204;-4.130;2023-03-16T07:05:08;6.88;;;2.45;;
49764;SDS011;35657;51.204;-4.130;2023-03-16T07:07:38;4.43;;;1.25;;
49764;SDS011;35657;51.204;-4.130;2023-03-16T07:10:06;8.10;;;1.77;;
49764;SDS011;35657;51.204;-4.130;2023-03-16T07:12:35;8.65;;;2.45;;
49764;SDS011;35657;51.204;-4.130;2023-03-16T07:15:01;5.68;;;1.95;;
49764;SDS011;35657;51.204;-4.130;2023-03-16T07:17:27;9.98;;;2.17;;
49764;SDS011;35657;51.204;-4.130;2023-03-16T07:19:53;9.68;;;1.90;;
49764;SDS011;35657;51.204;-4.130;2023-03-16T07:22:19;10.07;;;1.90;;
49764;SDS011;35657;51.204;-4.130;2023-03-16T07:24:46;6.88;;;1.95;;
49764;SDS011;35657;51.204;-4.130;2023-03-16T07:27:15;2.85;;;1.50;;
49764;SDS011;35657;51.204;-4.130;2023-03-16T07:29:41;5.63;;;1.80;;
49764;SDS011;35657;51.204;-4.130;2023-03-16T07:32:07;4.43;;;1.38;;
49764;SDS011;35657;51.204;-4.130;2023-03-16T07:34:33;6.28;;;1.70;;
49764;SDS011;35657;51.204;-4.130;2023-03-16T07:36:59;6.07;;;1.60;;
49764;SDS011;35657;51.204;-4.130;2023-03-16T07:39:24;7.35;;;1.88;;
49764;SDS011;35657;51.204;-4.130;2023-03-16T07:41:51;8.30;;;1.95;;
49764;SDS011;35657;51.204;-4.130;2023-03-16T07:44:16;4.72;;;0.98;;
49764;SDS011;35657;51.204;-4.130;2023-03-16T07:46:42;10.43;;;1.92;;
49764;SDS011;35657;51.204;-4.130;2023-03-16T07:49:08;5.45;;;1.77;;
49764;SDS011;35657;51.204;-4.130;2023-03-16T07:51:34;8.40;;;1.52;;
49764;SDS011;35657;51.204;-4.130;2023-03-16T07:54:00;7.32;;;1.38;;
49764;SDS011;35657;51.204;-4.130;2023-03-16T07:56:26;2.83;;;1.75;;
49764;SDS011;35657;51.204;-4.130;2023-03-16T07:58:51;3.45;;;1.55;;
49764;SDS011;35657;51.204;-4.130;2023-03-16T08:01:17;8.65;;;1.70;;
49764;SDS011;35657;51.204;-4.130;2023-03-16T08:03:43;4.15;;;1.48;;
49764;SDS011;35657;51.204;-4.130;2023-03-16T08:06:08;4.20;;;1.25;;
49764;SDS011;35657;51.204;-4.130;2023-03-16T08:08:37;8.23;;;1.60;;
49764;SDS011;35657;51.204;-4.130;2023-03-16T08:11:03;3.05;;;1.02;;
49764;SDS011;35657;51.204;-4.130;2023-03-16T08:13:28;1.70;;;0.82;;
49764;SDS011;35657;51.204;-4.130;2023-03-16T08:15:54;6.90;;;1.73;;
49764;SDS011;35657;51.204;-4.130;2023-03-16T08:18:23;5.25;;;1.92;;
49764;SDS011;35657;51.204;-4.130;2023-03-16T08:20:49;5.50;;;1.63;;
49764;SDS011;35657;51.204;-4.130;2023-03-16T08:23:15;8.95;;;1.95;;
49764;SDS011;35657;51.204;-4.130;2023-03-16T08:25:41;3.95;;;1.15;;
49764;SDS011;35657;51.204;-4.130;2023-03-16T08:28:07;6.32;;;1.70;;
49764;SDS011;35657;51.204;-4.130;2023-03-16T08:30:33;4.15;;;1.33;;
49764;SDS011;35657;51.204;-4.130;2023-03-16T08:32:59;3.35;;;1.35;;
49764;SDS011;35657;51.204;-4.130;2023-03-16T08:35:27;8.30;;;1.08;;
49764;SDS011;35657;51.204;-4.130;2023-03-16T08:37:54;1.95;;;1.73;;
49764;SDS011;35657;51.204;-4.130;2023-03-16T08:40:20;9.70;;;1.70;;
49764;SDS011;35657;51.204;-4.130;2023-03-16T08:42:47;8.05;;;1.58;;
49764;SDS011;35657;51.204;-4.130;2023-03-16T08:45:14;3.90;;;1.67;;
49764;SDS011;35657;51.204;-4.130;2023-03-16T08:47:41;9.65;;;1.95;;
49764;SDS011;35657;51.204;-4.130;2023-03-16T08:50:08;5.82;;;1.08;;
49764;SDS011;35657;51.204;-4.130;2023-03-16T08:52:37;6.80;;;1.83;;
49764;SDS011;35657;51.204;-4.130;2023-03-16T08:55:03;14.85;;;1.95;;
49764;SDS011;35657;51.204;-4.130;2023-03-16T08:57:32;4.45;;;2.45;;
49764;SDS011;35657;51.204;-4.130;2023-03-16T08:59:58;8.88;;;2.35;;
49764;SDS011;35657;51.204;-4.130;2023-03-16T09:02:24;2.30;;;1.08;;
49764;SDS011;35657;51.204;-4.130;2023-03-16T09:04:50;5.50;;;1.55;;
49764;SDS011;35657;51.204;-4.130;2023-03-16T09:07:16;13.15;;;1.80;;
49764;SDS011;35657;51.204;-4.130;2023-03-16T09:09:43;2.17;;;1.10;;
49764;SDS011;35657;51.204;-4.130;2023-03-16T09:12:10;11.88;;;1.90;;
49764;SDS011;35657;51.204;-4.130;2023-03-16T09:14:37;3.42;;;1.67;;
49764;SDS011;35657;51.204;-4.130;2023-03-16T09:17:03;5.55;;;1.20;;
49764;SDS011;35657;51.204;-4.130;2023-03-16T09:19:31;19.65;;;2.35;;
49764;SDS011;35657;51.204;-4.130;2023-03-16T09:21:57;6.88;;;1.40;;
49764;SDS011;35657;51.204;-4.130;2023-03-16T09:24:23;9.25;;;1.60;;
49764;SDS011;35657;51.204;-4.130;2023-03-16T09:26:50;4.90;;;1.35;;
49764;SDS011;35657;51.204;-4.130;2023-03-16T09:29:16;4.60;;;1.38;;
49764;SDS011;35657;51.204;-4.130;2023-03-16T09:31:43;4.85;;;1.73;;
49764;SDS011;35657;51.204;-4.130;2023-03-16T09:34:10;3.28;;;1.42;;
49764;SDS011;35657;51.204;-4.130;2023-03-16T09:36:35;2.28;;;1.25;;
49764;SDS011;35657;51.204;-4.130;2023-03-16T09:39:02;2.78;;;1.40;;
49764;SDS011;35657;51.204;-4.130;2023-03-16T09:44:09;2.35;;;1.13;;
49764;SDS011;35657;51.204;-4.130;2023-03-16T09:46:57;2.20;;;1.20;;
49764;SDS011;35657;51.204;-4.130;2023-03-16T09:49:26;5.90;;;1.33;;
49764;SDS011;35657;51.204;-4.130;2023-03-16T09:52:02;6.03;;;1.50;;
49764;SDS011;35657;51.204;-4.130;2023-03-16T09:54:50;13.52;;;1.90;;
49764;SDS011;35657;51.204;-4.130;2023-03-16T09:57:29;4.63;;;1.40;;
49764;SDS011;35657;51.204;-4.130;2023-03-16T10:05:19;3.53;;;1.33;;
49764;SDS011;35657;51.204;-4.130;2023-03-16T10:08:21;5.68;;;1.20;;
49764;SDS011;35657;51.204;-4.130;2023-03-16T10:16:15;2.55;;;0.80;;
49764;SDS011;35657;51.204;-4.130;2023-03-16T10:18:45;2.55;;;1.02;;
49764;SDS011;35657;51.204;-4.130;2023-03-16T10:21:14;5.90;;;1.50;;
49764;SDS011;35657;51.204;-4.130;2023-03-16T10:23:43;4.07;;;1.23;;
49764;SDS011;35657;51.204;-4.130;2023-03-16T10:26:44;1.30;;;0.85;;
49764;SDS011;35657;51.204;-4.130;2023-03-16T10:29:09;3.05;;;1.02;;
49764;SDS011;35657;51.204;-4.130;2023-03-16T10:31:40;2.67;;;1.13;;
49764;SDS011;35657;51.204;-4.130;2023-03-16T10:34:07;3.15;;;0.90;;
49764;SDS011;35657;51.204;-4.130;2023-03-16T10:36:35;5.55;;;1.13;;
49764;SDS011;35657;51.204;-4.130;2023-03-16T10:39:07;1.92;;;0.82;;
49764;SDS011;35657;51.204;-4.130;2023-03-16T10:41:44;4.20;;;1.30;;
49764;SDS011;35657;51.204;-4.130;2023-03-16T10:44:22;2.33;;;1.13;;
49764;SDS011;35657;51.204;-4.130;2023-03-16T10:49:34;3.17;;;1.00;;
49764;SDS011;35657;51.204;-4.130;2023-03-16T10:52:17;3.92;;;1.17;;
49764;SDS011;35657;51.204;-4.130;2023-03-16T10:54:52;4.18;;;1.70;;
49764;SDS011;35657;51.204;-4.130;2023-03-16T10:57:26;5.45;;;1.27;;
49764;SDS011;35657;51.204;-4.130;2023-03-16T11:02:45;1.70;;;1.00;;
49764;SDS011;35657;51.204;-4.130;2023-03-16T11:07:48;5.82;;;1.30;;
49764;SDS011;35657;51.204;-4.130;2023-03-16T11:10:53;3.75;;;1.05;;
49764;SDS011;35657;51.204;-4.130;2023-03-16T11:13:11;3.25;;;1.10;;
49764;SDS011;35657;51.204;-4.130;2023-03-16T11:15:40;4.32;;;1.15;;
49764;SDS011;35657;51.204;-4.130;2023-03-16T11:18:29;0.95;;;0.70;;
49764;SDS011;35657;51.204;-4.130;2023-03-16T11:21:14;2.40;;;1.20;;
49764;SDS011;35657;51.204;-4.130;2023-03-16T11:23:47;8.43;;;1.30;;
49764;SDS011;35657;51.204;-4.130;2023-03-16T11:26:17;2.67;;;1.05;;
49764;SDS011;35657;51.204;-4.130;2023-03-16T11:34:17;2.20;;;0.85;;
49764;SDS011;35657;51.204;-4.130;2023-03-16T11:36:47;2.53;;;0.52;;
49764;SDS011;35657;51.204;-4.130;2023-03-16T11:39:30;2.35;;;0.75;;
49764;SDS011;35657;51.204;-4.130;2023-03-16T11:55:48;4.78;;;1.30;;
49764;SDS011;35657;51.204;-4.130;2023-03-16T12:03:51;1.42;;;0.60;;
49764;SDS011;35657;51.204;-4.130;2023-03-16T12:09:26;2.20;;;0.60;;
49764;SDS011;35657;51.204;-4.130;2023-03-16T12:14:44;1.08;;;0.57;;
49764;SDS011;35657;51.204;-4.130;2023-03-16T12:17:19;0.75;;;0.60;;
49764;SDS011;35657;51.204;-4.130;2023-03-16T12:19:52;1.15;;;0.70;;
49764;SDS011;35657;51.204;-4.130;2023-03-16T12:25:29;1.55;;;0.70;;
49764;SDS011;35657;51.204;-4.130;2023-03-16T12:28:02;1.75;;;0.75;;
49764;SDS011;35657;51.204;-4.130;2023-03-16T12:50:11;4.07;;;1.00;;
49764;SDS011;35657;51.204;-4.130;2023-03-16T12:52:43;14.55;;;1.27;;
49764;SDS011;35657;51.204;-4.130;2023-03-16T12:57:42;2.13;;;0.80;;
49764;SDS011;35657;51.204;-4.130;2023-03-16T13:00:09;0.75;;;0.70;;
49764;SDS011;35657;51.204;-4.130;2023-03-16T13:02:38;2.40;;;0.65;;
49764;SDS011;35657;51.204;-4.130;2023-03-16T13:05:09;1.27;;;0.75;;
49764;SDS011;35657;51.204;-4.130;2023-03-16T13:07:48;1.35;;;0.60;;
49764;SDS011;35657;51.204;-4.130;2023-03-16T13:10:17;1.13;;;0.70;;
49764;SDS011;35657;51.204;-4.130;2023-03-16T13:12:45;1.25;;;0.82;;
49764;SDS011;35657;51.204;-4.130;2023-03-16T13:17:51;2.05;;;0.60;;
49764;SDS011;35657;51.204;-4.130;2023-03-16T13:20:30;1.27;;;0.55;;
49764;SDS011;35657;51.204;-4.130;2023-03-16T13:28:35;0.75;;;0.52;;
49764;SDS011;35657;51.204;-4.130;2023-03-16T13:31:03;1.85;;;0.50;;
49764;SDS011;35657;51.204;-4.130;2023-03-16T13:33:48;0.88;;;0.68;;
49764;SDS011;35657;51.204;-4.130;2023-03-16T13:36:18;2.40;;;0.50;;
49764;SDS011;35657;51.204;-4.130;2023-03-16T13:38:53;2.33;;;0.55;;
49764;SDS011;35657;51.204;-4.130;2023-03-16T13:41:37;1.90;;;0.60;;
49764;SDS011;35657;51.204;-4.130;2023-03-16T13:44:03;0.80;;;0.60;;
49764;SDS011;35657;51.204;-4.130;2023-03-16T13:46:29;2.65;;;0.70;;
49764;SDS011;35657;51.204;-4.130;2023-03-16T13:48:58;1.05;;;0.60;;
49764;SDS011;35657;51.204;-4.130;2023-03-16T13:51:24;1.95;;;0.60;;
49764;SDS011;35657;51.204;-4.130;2023-03-16T13:53:51;0.30;;;0.30;;
49764;SDS011;35657;51.204;-4.130;2023-03-16T13:56:20;0.57;;;0.30;;
49764;SDS011;35657;51.204;-4.130;2023-03-16T13:58:50;0.53;;;0.50;;
49764;SDS011;35657;51.204;-4.130;2023-03-16T14:01:28;1.10;;;0.50;;
49764;SDS011;35657;51.204;-4.130;2023-03-16T14:04:00;1.05;;;0.50;;
49764;SDS011;35657;51.204;-4.130;2023-03-16T14:06:32;1.77;;;0.50;;
49764;SDS011;35657;51.204;-4.130;2023-03-16T14:09:00;0.52;;;0.40;;
49764;SDS011;35657;51.204;-4.130;2023-03-16T14:11:28;0.30;;;0.30;;
49764;SDS011;35657;51.204;-4.130;2023-03-16T14:13:55;0.40;;;0.30;;
49764;SDS011;35657;51.204;-4.130;2023-03-16T14:16:23;2.72;;;0.30;;
49764;SDS011;35657;51.204;-4.130;2023-03-16T14:18:52;0.28;;;0.22;;
49764;SDS011;35657;51.204;-4.130;2023-03-16T14:21:20;0.47;;;0.40;;
49764;SDS011;35657;51.204;-4.130;2023-03-16T14:23:57;0.50;;;0.30;;
49764;SDS011;35657;51.204;-4.130;2023-03-16T14:26:26;0.60;;;0.52;;
49764;SDS011;35657;51.204;-4.130;2023-03-16T14:31:50;1.55;;;0.40;;
49764;SDS011;35657;51.204;-4.130;2023-03-16T14:36:45;0.60;;;0.30;;
49764;SDS011;35657;51.204;-4.130;2023-03-16T14:39:15;0.60;;;0.32;;
49764;SDS011;35657;51.204;-4.130;2023-03-16T14:41:51;0.20;;;0.20;;
49764;SDS011;35657;51.204;-4.130;2023-03-16T14:44:19;0.30;;;0.30;;
49764;SDS011;35657;51.204;-4.130;2023-03-16T14:46:51;0.32;;;0.30;;
49764;SDS011;35657;51.204;-4.130;2023-03-16T14:51:57;0.40;;;0.40;;
49764;SDS011;35657;51.204;-4.130;2023-03-16T14:54:26;1.58;;;0.40;;
49764;SDS011;35657;51.204;-4.130;2023-03-16T14:56:53;0.90;;;0.40;;
49764;SDS011;35657;51.204;-4.130;2023-03-16T14:59:24;0.52;;;0.40;;
49764;SDS011;35657;51.204;-4.130;2023-03-16T15:01:50;0.30;;;0.30;;
49764;SDS011;35657;51.204;-4.130;2023-03-16T15:04:20;0.20;;;0.20;;
49764;SDS011;35657;51.204;-4.130;2023-03-16T15:06:53;0.60;;;0.30;;
49764;SDS011;35657;51.204;-4.130;2023-03-16T15:09:27;0.88;;;0.50;;
49764;SDS011;35657;51.204;-4.130;2023-03-16T15:12:14;0.30;;;0.20;;
49764;SDS011;35657;51.204;-4.130;2023-03-16T15:14:42;0.20;;;0.20;;
49764;SDS011;35657;51.204;-4.130;2023-03-16T15:17:26;0.25;;;0.25;;
49764;SDS011;35657;51.204;-4.130;2023-03-16T15:19:52;0.30;;;0.30;;
49764;SDS011;35657;51.204;-4.130;2023-03-16T15:22:22;0.43;;;0.35;;
49764;SDS011;35657;51.204;-4.130;2023-03-16T15:24:52;0.65;;;0.43;;
49764;SDS011;35657;51.204;-4.130;2023-03-16T15:27:19;0.22;;;0.22;;
49764;SDS011;35657;51.204;-4.130;2023-03-16T15:29:49;0.20;;;0.20;;
49764;SDS011;35657;51.204;-4.130;2023-03-16T15:32:14;0.40;;;0.40;;
49764;SDS011;35657;51.204;-4.130;2023-03-16T15:34:40;0.52;;;0.38;;
49764;SDS011;35657;51.204;-4.130;2023-03-16T15:37:10;0.40;;;0.30;;
49764;SDS011;35657;51.204;-4.130;2023-03-16T15:39:41;0.88;;;0.30;;
49764;SDS011;35657;51.204;-4.130;2023-03-16T15:42:14;0.20;;;0.20;;
49764;SDS011;35657;51.204;-4.130;2023-03-16T15:44:42;0.70;;;0.40;;
49764;SDS011;35657;51.204;-4.130;2023-03-16T15:47:09;0.35;;;0.35;;
49764;SDS011;35657;51.204;-4.130;2023-03-16T15:49:35;0.30;;;0.30;;
49764;SDS011;35657;51.204;-4.130;2023-03-16T15:52:02;0.55;;;0.40;;
49764;SDS011;35657;51.204;-4.130;2023-03-16T15:54:31;0.73;;;0.40;;
49764;SDS011;35657;51.204;-4.130;2023-03-16T15:57:00;0.43;;;0.40;;
49764;SDS011;35657;51.204;-4.130;2023-03-16T15:59:29;1.13;;;0.38;;
49764;SDS011;35657;51.204;-4.130;2023-03-16T16:02:00;0.47;;;0.40;;
49764;SDS011;35657;51.204;-4.130;2023-03-16T16:04:26;2.33;;;0.65;;
49764;SDS011;35657;51.204;-4.130;2023-03-16T16:06:52;0.28;;;0.22;;
49764;SDS011;35657;51.204;-4.130;2023-03-16T16:09:19;0.70;;;0.30;;
49764;SDS011;35657;51.204;-4.130;2023-03-16T16:11:45;0.25;;;0.25;;
49764;SDS011;35657;51.204;-4.130;2023-03-16T16:14:16;0.20;;;0.20;;
49764;SDS011;35657;51.204;-4.130;2023-03-16T16:16:46;1.33;;;0.38;;
49764;SDS011;35657;51.204;-4.130;2023-03-16T16:19:13;0.28;;;0.22;;
49764;SDS011;35657;51.204;-4.130;2023-03-16T16:21:39;1.10;;;0.20;;